Flight Track Log - Related Links

Times and Time Zones

All times are in EDT time to prevent confusion due to time zone crossing. See the SKW2624 flight status page for this flight to view local times or setup timezone preferences in your user account.

Time Position Orientation Groundspeed Altitude Reporting Facility
EDT Latitude Longitude Course Direction KTS MPH feet Rate Location/Type
Tue 09:32:54 PM 37.3833 -121.9500 138° Southeast 144 166 1,600  Level Northern Cal TRACON
Tue 09:33:48 PM 37.4167 -121.9833 322° Northwest 202 232 3,600 1,842 Climbing Northern Cal TRACON
Tue 09:34:48 PM 37.4333 -121.9333 67° East 226 260 5,100 762 Climbing Northern Cal TRACON
Tue 09:35:54 PM 37.3833 -121.8833 142° Southeast 208 239 5,200 1,286 Climbing Northern Cal TRACON
Tue 09:36:54 PM 37.3500 -121.8333 130° Southeast 223 257 7,800 2,231 Climbing Northern Cal TRACON
Tue 09:37:55 PM 37.2833 -121.7667 141° Southeast 287 330 9,700 1,736 Climbing Northern Cal TRACON
Tue 09:38:00 PM 37.0162 -121.5531 138° Southeast  Level Estimated
Tue 09:38:55 PM 37.2167 -121.7000 141° Southeast 319 367 11,300  Level Northern Cal TRACON
Tue 09:40:21 PM 37.1242 -121.5806 134° Southeast 355 409 13,400 1,469 Climbing Oakland Center
Tue 09:41:22 PM 37.0453 -121.4942 139° Southeast 366 421 14,900 1,366 Climbing Oakland Center
Tue 09:42:24 PM 36.9672 -121.4056 138° Southeast 377 434 16,200 1,220 Climbing Oakland Center
Tue 09:43:25 PM 36.8853 -121.3167 139° Southeast 388 447 17,400 1,082 Climbing Oakland Center
Tue 09:44:26 PM 36.7947 -121.2175 139° Southeast 393 452 18,400 934 Climbing Oakland Center
Tue 09:45:27 PM 36.7094 -121.1250 139° Southeast 405 466 19,300 934 Climbing Oakland Center
Tue 09:46:28 PM 36.6244 -121.0308 138° Southeast 408 470 20,300 1,033 Climbing Oakland Center
Tue 09:47:29 PM 36.5392 -120.9347 138° Southeast 411 473 21,400 934 Climbing Oakland Center
Tue 09:48:30 PM 36.4544 -120.8433 139° Southeast 405 466 22,200 934 Climbing Oakland Center
Tue 09:49:31 PM 36.3692 -120.7483 138° Southeast 410 472 23,300 1,328 Climbing Oakland Center
Tue 09:50:32 PM 36.2864 -120.6586 139° Southeast 397 457 24,900 1,475 Climbing Oakland Center
Tue 09:51:33 PM 36.2067 -120.5747 140° Southeast 380 437 26,300 1,180 Climbing Oakland Center
Tue 09:52:34 PM 36.1278 -120.4908 139° Southeast 374 430 27,300 836 Climbing Oakland Center
Tue 09:53:35 PM 36.0478 -120.4047 139° Southeast 380 437 28,000 738 Climbing Oakland Center
Tue 09:54:36 PM 35.9525 -120.3019 139° Southeast 379 436 28,800 492 Climbing Oakland Center
Tue 09:55:37 PM 35.8703 -120.2153 139° Southeast 385 443 29,000 98 Climbing Oakland Center
Tue 09:56:38 PM 35.7836 -120.1250 140° Southeast 399 459 29,000  Level Oakland Center
Tue 09:57:40 PM 35.6944 -120.0292 139° Southeast 418 481 29,000  Level Oakland Center
Tue 09:58:37 PM 35.6208 -119.9556 141° Southeast 423 487 29,000  Level Los Angeles Center
Tue 09:59:39 PM 35.5014 -119.8531 145° Southeast 433 498 29,000  Level Los Angeles Center
Tue 10:00:40 PM 35.4019 -119.7675 145° Southeast 435 501 29,000  Level Los Angeles Center
Tue 10:01:42 PM 35.3019 -119.6819 145° Southeast 436 502 29,000  Level Los Angeles Center
Tue 10:02:44 PM 35.2022 -119.5961 145° Southeast 437 503 29,000  Level Los Angeles Center
Tue 10:03:46 PM 35.1028 -119.5103 145° Southeast 437 503 29,000  Level Los Angeles Center
Tue 10:04:47 PM 35.0031 -119.4253 145° Southeast 436 502 29,000 -976 Level Los Angeles Center
Tue 10:05:49 PM 34.9014 -119.3394 145° Southeast 442 509 27,000 -1,887 Descending Los Angeles Center
Tue 10:06:51 PM 34.7994 -119.2542 146° Southeast 445 512 25,100 -2,274 Descending Los Angeles Center
Tue 10:07:53 PM 34.6808 -119.1539 145° Southeast 436 502 22,300 -2,537 Descending Los Angeles Center
Tue 10:08:54 PM 34.5792 -119.0683 145° Southeast 441 507 19,900 -2,341 Descending Los Angeles Center
Tue 10:09:56 PM 34.4786 -118.9972 150° Southeast 415 478 17,500 -2,274 Descending Los Angeles Center
Tue 10:10:58 PM 34.3792 -118.9383 154° Southeast 400 460 15,200 -2,177 Descending Los Angeles Center
Tue 10:12:00 PM 34.2800 -118.8800 154° Southeast 398 458 13,000 -1,610 Descending Los Angeles Center
Tue 10:13:01 PM 34.1872 -118.8256 154° Southeast 362 417 11,900 -1,268 Descending Los Angeles Center
Tue 10:14:03 PM 34.1050 -118.7903 160° South 317 365 10,400 -919 Descending Los Angeles Center
Tue 10:15:05 PM 34.0356 -118.7231 141° Southeast 308 354 10,000 -439 Descending Los Angeles Center
Tue 10:16:06 PM 34.0247 -118.6156 97° East 301 346 9,500 -829 Descending Los Angeles Center
Tue 10:17:08 PM 34.0150 -118.5172 97° East 296 341 8,300 -1,258 Descending Los Angeles Center
Tue 10:18:10 PM 34.0172 -118.4231 88° East 281 323 6,900 -1,597 Descending Los Angeles Center
Tue 10:19:12 PM 34.0294 -118.3289 81° East 280 322 5,000 -1,707 Descending Los Angeles Center
Tue 10:20:13 PM 34.0261 -118.2458 93° East 261 300 3,400 -1,171 Descending Los Angeles Center
Tue 10:21:15 PM 33.9761 -118.2572 191° South 203 234 2,600 -774 Descending Los Angeles Center
Tue 10:22:17 PM 33.9611 -118.3114 252° West 180 207 1,800 -829 Descending Los Angeles Center
Tue 10:23:18 PM 33.9575 -118.3608 265° West 142 163 900 -732 Descending Los Angeles Center
Tue 10:24:20 PM 33.9528 -118.3989 262° West 125 144 300 -581 Descending Los Angeles Center
Tue 10:26:00 PM 33.9333 -118.4000 228° Southwest  Level FlightAware Approximate
Tue 10:33:00 PM 33.9425 -118.4081 228° Southwest  Level Estimated

Login

Don't have an account? Register now (free) for customized features, flight alerts, and more!